sensor_id;sensor_type;location;lat;lon;timestamp;pressure;altitude;pressure_sealevel;temperature;humidity
12471;BME280;36499;46.484;13.832;2023-07-29T00:02:00;93038.19;;;17.58;82.68
12471;BME280;36499;46.484;13.832;2023-07-29T00:04:27;93033.72;;;17.58;83.09
12471;BME280;36499;46.484;13.832;2023-07-29T00:06:54;93033.72;;;17.58;83.37
12471;BME280;36499;46.484;13.832;2023-07-29T00:09:21;93035.88;;;17.61;83.34
12471;BME280;36499;46.484;13.832;2023-07-29T00:11:49;93038.25;;;17.68;83.42
12471;BME280;36499;46.484;13.832;2023-07-29T00:14:16;93034.63;;;17.79;82.92
12471;BME280;36499;46.484;13.832;2023-07-29T00:16:43;93034.09;;;17.82;83.00
12471;BME280;36499;46.484;13.832;2023-07-29T00:19:10;93032.56;;;17.91;82.47
12471;BME280;36499;46.484;13.832;2023-07-29T00:21:37;93034.69;;;17.94;82.42
12471;BME280;36499;46.484;13.832;2023-07-29T00:24:04;93027.28;;;17.96;82.53
12471;BME280;36499;46.484;13.832;2023-07-29T00:26:31;93027.03;;;17.98;82.85
12471;BME280;36499;46.484;13.832;2023-07-29T00:29:00;93027.31;;;18.01;82.70
12471;BME280;36499;46.484;13.832;2023-07-29T00:31:27;93033.38;;;18.02;82.86
12471;BME280;36499;46.484;13.832;2023-07-29T00:33:54;93030.78;;;18.07;82.08
12471;BME280;36499;46.484;13.832;2023-07-29T00:36:21;93029.97;;;18.06;81.42
12471;BME280;36499;46.484;13.832;2023-07-29T00:38:48;93033.91;;;18.04;81.32
12471;BME280;36499;46.484;13.832;2023-07-29T00:41:15;93034.44;;;18.06;81.00
12471;BME280;36499;46.484;13.832;2023-07-29T00:43:42;93029.69;;;17.98;81.58
12471;BME280;36499;46.484;13.832;2023-07-29T00:46:11;93036.78;;;17.97;81.40
12471;BME280;36499;46.484;13.832;2023-07-29T00:48:39;93035.16;;;17.86;82.04
12471;BME280;36499;46.484;13.832;2023-07-29T00:51:06;93035.16;;;17.86;82.17
12471;BME280;36499;46.484;13.832;2023-07-29T00:53:34;93034.66;;;17.89;82.19
12471;BME280;36499;46.484;13.832;2023-07-29T00:56:01;93040.94;;;17.78;82.58
12471;BME280;36499;46.484;13.832;2023-07-29T00:58:28;93036.72;;;17.82;82.51
12471;BME280;36499;46.484;13.832;2023-07-29T01:00:55;93033.81;;;17.79;82.66
12471;BME280;36499;46.484;13.832;2023-07-29T01:03:24;93039.09;;;17.79;83.01
12471;BME280;36499;46.484;13.832;2023-07-29T01:06:05;93031.22;;;17.89;82.72
12471;BME280;36499;46.484;13.832;2023-07-29T01:08:55;93029.91;;;17.91;81.84
12471;BME280;36499;46.484;13.832;2023-07-29T01:14:32;93019.66;;;17.95;81.17
12471;BME280;36499;46.484;13.832;2023-07-29T01:17:05;93023.56;;;17.87;82.11
12471;BME280;36499;46.484;13.832;2023-07-29T01:19:57;93022.19;;;17.74;82.71
12471;BME280;36499;46.484;13.832;2023-07-29T01:22:27;93025.41;;;17.87;81.86
12471;BME280;36499;46.484;13.832;2023-07-29T01:24:57;93036.75;;;17.92;81.30
12471;BME280;36499;46.484;13.832;2023-07-29T01:27:25;93043.97;;;18.07;81.00
12471;BME280;36499;46.484;13.832;2023-07-29T01:29:52;93038.97;;;18.10;80.89
12471;BME280;36499;46.484;13.832;2023-07-29T01:32:30;93040.03;;;18.25;80.35
12471;BME280;36499;46.484;13.832;2023-07-29T01:35:15;93042.13;;;18.22;80.50
12471;BME280;36499;46.484;13.832;2023-07-29T01:37:51;93040.06;;;18.30;80.24
12471;BME280;36499;46.484;13.832;2023-07-29T01:40:23;93053.25;;;18.30;80.58
12471;BME280;36499;46.484;13.832;2023-07-29T01:42:53;93049.56;;;18.36;80.94
12471;BME280;36499;46.484;13.832;2023-07-29T01:45:23;93051.41;;;18.35;81.09
12471;BME280;36499;46.484;13.832;2023-07-29T01:47:51;93049.56;;;18.36;81.17
12471;BME280;36499;46.484;13.832;2023-07-29T01:50:19;93054.31;;;18.39;80.90
12471;BME280;36499;46.484;13.832;2023-07-29T01:52:46;93060.69;;;18.48;80.15
12471;BME280;36499;46.484;13.832;2023-07-29T01:55:13;93058.34;;;18.51;79.14
12471;BME280;36499;46.484;13.832;2023-07-29T01:57:41;93060.50;;;18.69;78.36
12471;BME280;36499;46.484;13.832;2023-07-29T02:00:09;93054.69;;;18.83;78.04
12471;BME280;36499;46.484;13.832;2023-07-29T02:02:36;93063.69;;;18.97;78.12
12471;BME280;36499;46.484;13.832;2023-07-29T02:05:04;93056.03;;;19.00;78.12
12471;BME280;36499;46.484;13.832;2023-07-29T02:07:31;93063.44;;;18.98;78.70
12471;BME280;36499;46.484;13.832;2023-07-29T02:09:58;93069.75;;;18.87;79.39
12471;BME280;36499;46.484;13.832;2023-07-29T02:12:25;93082.19;;;18.87;80.25
12471;BME280;36499;46.484;13.832;2023-07-29T02:14:54;93078.19;;;18.64;81.09
12471;BME280;36499;46.484;13.832;2023-07-29T02:17:21;93092.69;;;18.61;83.26
12471;BME280;36499;46.484;13.832;2023-07-29T02:19:48;93104.56;;;18.54;84.04
12471;BME280;36499;46.484;13.832;2023-07-29T02:22:17;93107.47;;;18.57;84.73
12471;BME280;36499;46.484;13.832;2023-07-29T02:24:45;93114.03;;;18.45;86.08
12471;BME280;36499;46.484;13.832;2023-07-29T02:27:12;93125.81;;;18.27;87.36
12471;BME280;36499;46.484;13.832;2023-07-29T02:29:39;93124.41;;;18.04;88.37
12471;BME280;36499;46.484;13.832;2023-07-29T02:32:07;93131.84;;;18.12;89.22
12471;BME280;36499;46.484;13.832;2023-07-29T02:34:34;93132.59;;;18.03;90.49
12471;BME280;36499;46.484;13.832;2023-07-29T02:37:02;93138.31;;;17.90;91.46
12471;BME280;36499;46.484;13.832;2023-07-29T02:39:29;93128.53;;;17.80;92.91
12471;BME280;36499;46.484;13.832;2023-07-29T02:41:56;93126.06;;;17.68;94.06
12471;BME280;36499;46.484;13.832;2023-07-29T02:44:24;93113.41;;;17.70;95.08
12471;BME280;36499;46.484;13.832;2023-07-29T02:46:51;93116.81;;;17.66;96.07
12471;BME280;36499;46.484;13.832;2023-07-29T02:49:21;93109.69;;;17.66;96.04
12471;BME280;36499;46.484;13.832;2023-07-29T02:51:48;93102.22;;;17.53;97.10
12471;BME280;36499;46.484;13.832;2023-07-29T02:54:15;93102.25;;;17.58;97.04
12471;BME280;36499;46.484;13.832;2023-07-29T02:56:42;93101.22;;;17.59;96.37
12471;BME280;36499;46.484;13.832;2023-07-29T02:59:09;93098.88;;;17.63;96.55
12471;BME280;36499;46.484;13.832;2023-07-29T03:01:36;93093.59;;;17.63;97.16
12471;BME280;36499;46.484;13.832;2023-07-29T03:04:04;93087.31;;;17.69;97.08
12471;BME280;36499;46.484;13.832;2023-07-29T03:06:32;93082.31;;;17.72;97.10
12471;BME280;36499;46.484;13.832;2023-07-29T03:08:59;93082.88;;;17.80;96.95
12471;BME280;36499;46.484;13.832;2023-07-29T03:11:26;93073.66;;;17.82;96.46
12471;BME280;36499;46.484;13.832;2023-07-29T03:13:53;93066.81;;;17.86;96.24
12471;BME280;36499;46.484;13.832;2023-07-29T03:16:20;93070.22;;;17.77;96.04
12471;BME280;36499;46.484;13.832;2023-07-29T03:18:49;93072.25;;;17.64;97.10
12471;BME280;36499;46.484;13.832;2023-07-29T03:21:16;93063.34;;;17.81;96.84
12471;BME280;36499;46.484;13.832;2023-07-29T03:23:44;93066.81;;;17.86;96.49
12471;BME280;36499;46.484;13.832;2023-07-29T03:26:11;93068.13;;;17.89;96.38
12471;BME280;36499;46.484;13.832;2023-07-29T03:28:40;93067.66;;;17.92;95.98
12471;BME280;36499;46.484;13.832;2023-07-29T03:31:08;93073.44;;;17.94;95.79
12471;BME280;36499;46.484;13.832;2023-07-29T03:33:35;93081.59;;;17.92;95.14
12471;BME280;36499;46.484;13.832;2023-07-29T03:36:03;93080.53;;;17.88;95.30
12471;BME280;36499;46.484;13.832;2023-07-29T03:38:30;93079.47;;;17.84;95.99
12471;BME280;36499;46.484;13.832;2023-07-29T03:41:00;93076.28;;;17.82;96.07
12471;BME280;36499;46.484;13.832;2023-07-29T03:43:28;93077.06;;;17.72;96.53
12471;BME280;36499;46.484;13.832;2023-07-29T03:45:55;93081.50;;;17.67;97.30
12471;BME280;36499;46.484;13.832;2023-07-29T03:48:22;93079.81;;;17.56;98.14
12471;BME280;36499;46.484;13.832;2023-07-29T03:50:49;93081.34;;;17.47;99.01
12471;BME280;36499;46.484;13.832;2023-07-29T03:53:16;93087.88;;;17.39;100.00
12471;BME280;36499;46.484;13.832;2023-07-29T03:55:43;93083.91;;;17.37;100.00
12471;BME280;36499;46.484;13.832;2023-07-29T03:58:12;93079.16;;;17.34;100.00
12471;BME280;36499;46.484;13.832;2023-07-29T04:00:39;93076.25;;;17.35;100.00
12471;BME280;36499;46.484;13.832;2023-07-29T04:03:06;93075.53;;;17.45;100.00
12471;BME280;36499;46.484;13.832;2023-07-29T04:05:33;93080.28;;;17.48;100.00
12471;BME280;36499;46.484;13.832;2023-07-29T04:08:06;93085.31;;;17.49;99.59
12471;BME280;36499;46.484;13.832;2023-07-29T04:10:33;93088.19;;;17.48;99.87
12471;BME280;36499;46.484;13.832;2023-07-29T04:13:01;93094.78;;;17.50;99.59
12471;BME280;36499;46.484;13.832;2023-07-29T04:15:29;93094.03;;;17.50;99.48
12471;BME280;36499;46.484;13.832;2023-07-29T04:17:56;93091.41;;;17.50;99.94
12471;BME280;36499;46.484;13.832;2023-07-29T04:20:23;93090.78;;;17.38;100.00
12471;BME280;36499;46.484;13.832;2023-07-29T04:22:50;93092.56;;;17.32;100.00
12471;BME280;36499;46.484;13.832;2023-07-29T04:25:18;93094.69;;;17.30;100.00
12471;BME280;36499;46.484;13.832;2023-07-29T04:27:45;93094.47;;;17.37;100.00
12471;BME280;36499;46.484;13.832;2023-07-29T04:30:12;93097.59;;;17.34;100.00
12471;BME280;36499;46.484;13.832;2023-07-29T04:32:40;93090.69;;;17.27;100.00
12471;BME280;36499;46.484;13.832;2023-07-29T04:35:08;93093.03;;;17.19;100.00
12471;BME280;36499;46.484;13.832;2023-07-29T04:37:35;93101.09;;;17.07;100.00
12471;BME280;36499;46.484;13.832;2023-07-29T04:40:03;93101.09;;;17.07;100.00
12471;BME280;36499;46.484;13.832;2023-07-29T04:42:30;93105.94;;;17.20;100.00
12471;BME280;36499;46.484;13.832;2023-07-29T04:44:58;93094.69;;;17.30;100.00
12471;BME280;36499;46.484;13.832;2023-07-29T04:47:25;93090.50;;;17.39;100.00
12471;BME280;36499;46.484;13.832;2023-07-29T04:49:53;93089.72;;;17.39;100.00
12471;BME280;36499;46.484;13.832;2023-07-29T04:52:20;93087.81;;;17.29;100.00
12471;BME280;36499;46.484;13.832;2023-07-29T04:54:47;93089.66;;;17.28;100.00
12471;BME280;36499;46.484;13.832;2023-07-29T04:57:14;93085.94;;;17.24;100.00
12471;BME280;36499;46.484;13.832;2023-07-29T04:59:41;93085.06;;;17.14;100.00
12471;BME280;36499;46.484;13.832;2023-07-29T05:02:08;93087.41;;;17.10;100.00
12471;BME280;36499;46.484;13.832;2023-07-29T05:04:36;93092.94;;;17.09;100.00
12471;BME280;36499;46.484;13.832;2023-07-29T05:07:05;93098.78;;;17.16;100.00
12471;BME280;36499;46.484;13.832;2023-07-29T05:09:32;93095.81;;;17.07;100.00
12471;BME280;36499;46.484;13.832;2023-07-29T05:11:59;93102.66;;;17.08;100.00
12471;BME280;36499;46.484;13.832;2023-07-29T05:14:26;93113.19;;;17.08;100.00
12471;BME280;36499;46.484;13.832;2023-07-29T05:16:53;93115.66;;;17.20;100.00
12471;BME280;36499;46.484;13.832;2023-07-29T05:19:20;93113.31;;;17.18;100.00
12471;BME280;36499;46.484;13.832;2023-07-29T05:21:48;93108.44;;;17.05;100.00
12471;BME280;36499;46.484;13.832;2023-07-29T05:24:16;93107.19;;;17.13;100.00
12471;BME280;36499;46.484;13.832;2023-07-29T05:26:43;93109.00;;;17.07;100.00
12471;BME280;36499;46.484;13.832;2023-07-29T05:29:10;93101.53;;;17.31;100.00
12471;BME280;36499;46.484;13.832;2023-07-29T05:31:37;93106.78;;;17.26;100.00
12471;BME280;36499;46.484;13.832;2023-07-29T05:34:04;93102.75;;;17.18;99.79
12471;BME280;36499;46.484;13.832;2023-07-29T05:36:31;93101.47;;;17.21;99.28
12471;BME280;36499;46.484;13.832;2023-07-29T05:38:58;93095.47;;;17.31;99.80
12471;BME280;36499;46.484;13.832;2023-07-29T05:41:27;93084.44;;;17.39;98.73
12471;BME280;36499;46.484;13.832;2023-07-29T05:43:54;93084.53;;;17.49;97.63
12471;BME280;36499;46.484;13.832;2023-07-29T05:46:22;93076.19;;;17.62;97.75
12471;BME280;36499;46.484;13.832;2023-07-29T05:48:49;93074.13;;;17.69;98.36
12471;BME280;36499;46.484;13.832;2023-07-29T05:51:16;93079.16;;;17.76;98.56
12471;BME280;36499;46.484;13.832;2023-07-29T05:53:43;93070.97;;;17.77;98.25
12471;BME280;36499;46.484;13.832;2023-07-29T05:56:09;93071.06;;;17.92;98.46
12471;BME280;36499;46.484;13.832;2023-07-29T05:58:38;93072.09;;;17.86;98.50
12471;BME280;36499;46.484;13.832;2023-07-29T06:01:05;93073.13;;;17.80;95.82
12471;BME280;36499;46.484;13.832;2023-07-29T06:03:32;93080.44;;;17.68;97.23
12471;BME280;36499;46.484;13.832;2023-07-29T06:05:59;93070.75;;;17.79;96.58
12471;BME280;36499;46.484;13.832;2023-07-29T06:08:26;93075.47;;;17.71;96.11
12471;BME280;36499;46.484;13.832;2023-07-29T06:10:55;93078.41;;;17.85;96.79
12471;BME280;36499;46.484;13.832;2023-07-29T06:13:22;93080.56;;;17.93;96.04
12471;BME280;36499;46.484;13.832;2023-07-29T06:15:50;93081.31;;;17.84;93.35
12471;BME280;36499;46.484;13.832;2023-07-29T06:18:17;93084.03;;;18.04;92.62
12471;BME280;36499;46.484;13.832;2023-07-29T06:20:44;93085.69;;;18.20;92.35
12471;BME280;36499;46.484;13.832;2023-07-29T06:23:11;93084.44;;;18.43;91.48
12471;BME280;36499;46.484;13.832;2023-07-29T06:25:38;93080.47;;;18.45;91.76
12471;BME280;36499;46.484;13.832;2023-07-29T06:28:05;93080.28;;;18.52;89.95
12471;BME280;36499;46.484;13.832;2023-07-29T06:30:32;93078.97;;;18.59;89.98
12471;BME280;36499;46.484;13.832;2023-07-29T06:33:01;93076.88;;;18.77;89.34
12471;BME280;36499;46.484;13.832;2023-07-29T06:35:29;93077.41;;;18.74;88.36
12471;BME280;36499;46.484;13.832;2023-07-29T06:37:56;93074.25;;;18.82;89.48
12471;BME280;36499;46.484;13.832;2023-07-29T06:40:23;93064.47;;;19.02;88.40
12471;BME280;36499;46.484;13.832;2023-07-29T06:42:50;93065.00;;;18.89;86.74
12471;BME280;36499;46.484;13.832;2023-07-29T06:45:17;93071.59;;;18.97;87.05
12471;BME280;36499;46.484;13.832;2023-07-29T06:47:45;93074.25;;;18.92;86.85
12471;BME280;36499;46.484;13.832;2023-07-29T06:50:13;93067.41;;;19.06;86.61
12471;BME280;36499;46.484;13.832;2023-07-29T06:52:40;93056.53;;;19.28;86.21
12471;BME280;36499;46.484;13.832;2023-07-29T06:55:08;93060.50;;;19.35;84.50
12471;BME280;36499;46.484;13.832;2023-07-29T06:57:35;93054.41;;;19.50;85.26
12471;BME280;36499;46.484;13.832;2023-07-29T07:00:03;93071.06;;;19.71;83.87
12471;BME280;36499;46.484;13.832;2023-07-29T07:02:30;93064.41;;;19.73;82.83
12471;BME280;36499;46.484;13.832;2023-07-29T07:04:57;93078.41;;;19.84;82.52
12471;BME280;36499;46.484;13.832;2023-07-29T07:07:25;93065.66;;;20.01;82.26
12471;BME280;36499;46.484;13.832;2023-07-29T07:09:52;93064.00;;;20.20;80.51
12471;BME280;36499;46.484;13.832;2023-07-29T07:12:19;93056.28;;;20.34;80.37
12471;BME280;36499;46.484;13.832;2023-07-29T07:14:47;93054.22;;;20.16;76.77
12471;BME280;36499;46.484;13.832;2023-07-29T07:17:14;93052.88;;;20.18;76.89
12471;BME280;36499;46.484;13.832;2023-07-29T07:19:41;93053.38;;;20.25;76.18
12471;BME280;36499;46.484;13.832;2023-07-29T07:22:08;93052.56;;;20.35;76.53
12471;BME280;36499;46.484;13.832;2023-07-29T07:24:36;93053.59;;;20.39;75.81
12471;BME280;36499;46.484;13.832;2023-07-29T07:27:04;93046.09;;;20.51;76.71
12471;BME280;36499;46.484;13.832;2023-07-29T07:29:31;93039.47;;;20.53;75.70
12471;BME280;36499;46.484;13.832;2023-07-29T07:31:59;93029.75;;;20.83;75.51
12471;BME280;36499;46.484;13.832;2023-07-29T07:34:26;93034.81;;;20.74;74.47
12471;BME280;36499;46.484;13.832;2023-07-29T07:36:53;93029.47;;;20.84;74.06
12471;BME280;36499;46.484;13.832;2023-07-29T07:42:43;93026.41;;;21.35;73.91
12471;BME280;36499;46.484;13.832;2023-07-29T07:45:10;93022.09;;;21.44;72.81
12471;BME280;36499;46.484;13.832;2023-07-29T07:47:37;93018.28;;;21.50;70.27
12471;BME280;36499;46.484;13.832;2023-07-29T07:50:05;93020.69;;;21.75;71.02
12471;BME280;36499;46.484;13.832;2023-07-29T07:52:32;93026.97;;;21.61;70.05
12471;BME280;36499;46.484;13.832;2023-07-29T07:54:59;93028.47;;;21.67;70.97
12471;BME280;36499;46.484;13.832;2023-07-29T07:57:26;93026.09;;;21.65;70.73
12471;BME280;36499;46.484;13.832;2023-07-29T07:59:55;93030.97;;;21.58;68.33
12471;BME280;36499;46.484;13.832;2023-07-29T08:02:22;93031.63;;;21.69;69.99
12471;BME280;36499;46.484;13.832;2023-07-29T08:04:49;93038.25;;;22.19;70.71
12471;BME280;36499;46.484;13.832;2023-07-29T08:07:16;93032.63;;;22.25;70.47
12471;BME280;36499;46.484;13.832;2023-07-29T08:09:43;93036.34;;;22.24;69.14
12471;BME280;36499;46.484;13.832;2023-07-29T08:12:10;93022.50;;;22.46;66.55
12471;BME280;36499;46.484;13.832;2023-07-29T08:14:37;93024.03;;;22.52;68.57
12471;BME280;36499;46.484;13.832;2023-07-29T08:17:06;93023.00;;;22.29;67.48
12471;BME280;36499;46.484;13.832;2023-07-29T08:19:33;93020.19;;;22.21;63.60
12471;BME280;36499;46.484;13.832;2023-07-29T08:22:03;93012.88;;;22.50;67.05
12471;BME280;36499;46.484;13.832;2023-07-29T08:24:30;92998.31;;;22.66;64.37
12471;BME280;36499;46.484;13.832;2023-07-29T08:26:57;93006.31;;;22.99;65.29
12471;BME280;36499;46.484;13.832;2023-07-29T08:29:24;92992.78;;;23.14;62.92
12471;BME280;36499;46.484;13.832;2023-07-29T08:31:51;92999.28;;;23.08;61.63
12471;BME280;36499;46.484;13.832;2023-07-29T08:34:19;92994.63;;;23.32;61.91
12471;BME280;36499;46.484;13.832;2023-07-29T08:36:46;92993.63;;;23.28;60.16
12471;BME280;36499;46.484;13.832;2023-07-29T08:39:13;92996.09;;;23.38;61.06
12471;BME280;36499;46.484;13.832;2023-07-29T08:41:49;92997.44;;;23.54;60.39
12471;BME280;36499;46.484;13.832;2023-07-29T08:44:22;92992.72;;;23.51;60.57
12471;BME280;36499;46.484;13.832;2023-07-29T08:46:50;92996.28;;;23.74;57.46
12471;BME280;36499;46.484;13.832;2023-07-29T08:49:20;92990.16;;;23.87;59.28
12471;BME280;36499;46.484;13.832;2023-07-29T08:51:49;92996.75;;;23.89;57.99
12471;BME280;36499;46.484;13.832;2023-07-29T08:54:17;92995.09;;;24.07;58.18
12471;BME280;36499;46.484;13.832;2023-07-29T08:56:44;93004.56;;;24.00;57.12
12471;BME280;36499;46.484;13.832;2023-07-29T08:59:13;92997.75;;;24.21;56.67
12471;BME280;36499;46.484;13.832;2023-07-29T09:01:42;92999.03;;;24.10;59.66
12471;BME280;36499;46.484;13.832;2023-07-29T09:04:10;92998.41;;;24.13;59.69
12471;BME280;36499;46.484;13.832;2023-07-29T09:06:39;92997.28;;;24.19;59.81
12471;BME280;36499;46.484;13.832;2023-07-29T09:09:09;92991.63;;;24.20;58.45
12471;BME280;36499;46.484;13.832;2023-07-29T09:11:36;92981.47;;;24.58;57.68
12471;BME280;36499;46.484;13.832;2023-07-29T09:14:03;92987.03;;;24.48;57.61
12471;BME280;36499;46.484;13.832;2023-07-29T09:16:31;92983.97;;;24.55;56.97
12471;BME280;36499;46.484;13.832;2023-07-29T09:19:02;92978.81;;;24.58;56.35
12471;BME280;36499;46.484;13.832;2023-07-29T09:21:30;92982.59;;;24.79;57.49
12471;BME280;36499;46.484;13.832;2023-07-29T09:24:03;92978.00;;;24.71;55.89
12471;BME280;36499;46.484;13.832;2023-07-29T09:26:30;92971.59;;;24.95;56.88
12471;BME280;36499;46.484;13.832;2023-07-29T09:28:59;92969.53;;;25.14;56.40
12471;BME280;36499;46.484;13.832;2023-07-29T09:31:28;92967.72;;;25.01;56.43
12471;BME280;36499;46.484;13.832;2023-07-29T09:33:57;92965.59;;;25.42;54.58
12471;BME280;36499;46.484;13.832;2023-07-29T09:36:25;92965.44;;;25.69;53.31
12471;BME280;36499;46.484;13.832;2023-07-29T09:38:56;92963.50;;;26.01;54.95
12471;BME280;36499;46.484;13.832;2023-07-29T09:41:26;92969.81;;;26.05;51.58
12471;BME280;36499;46.484;13.832;2023-07-29T09:43:58;92964.84;;;26.20;51.35
12471;BME280;36499;46.484;13.832;2023-07-29T09:46:27;92965.50;;;26.35;49.61
12471;BME280;36499;46.484;13.832;2023-07-29T09:48:59;92963.34;;;26.62;49.13
12471;BME280;36499;46.484;13.832;2023-07-29T09:51:27;92957.69;;;26.90;47.67
12471;BME280;36499;46.484;13.832;2023-07-29T09:53:55;92950.88;;;27.27;49.03
12471;BME280;36499;46.484;13.832;2023-07-29T09:56:26;92945.13;;;27.45;47.91
12471;BME280;36499;46.484;13.832;2023-07-29T09:58:56;92950.19;;;27.38;46.17
12471;BME280;36499;46.484;13.832;2023-07-29T10:01:24;92956.31;;;27.56;44.97
12471;BME280;36499;46.484;13.832;2023-07-29T10:03:52;92961.38;;;27.49;44.75
12471;BME280;36499;46.484;13.832;2023-07-29T10:06:22;92946.09;;;27.49;46.00
12471;BME280;36499;46.484;13.832;2023-07-29T10:08:51;92951.31;;;27.84;46.40
12471;BME280;36499;46.484;13.832;2023-07-29T10:11:21;92938.75;;;28.13;47.70
12471;BME280;36499;46.484;13.832;2023-07-29T10:13:52;92938.50;;;28.27;45.28
12471;BME280;36499;46.484;13.832;2023-07-29T10:16:22;92938.25;;;28.41;44.79
12471;BME280;36499;46.484;13.832;2023-07-29T10:18:52;92939.66;;;28.68;46.18
12471;BME280;36499;46.484;13.832;2023-07-29T10:21:22;92937.56;;;28.94;48.03
12471;BME280;36499;46.484;13.832;2023-07-29T10:23:53;92930.97;;;29.03;45.98
12471;BME280;36499;46.484;13.832;2023-07-29T10:26:26;92923.56;;;29.21;47.12
12471;BME280;36499;46.484;13.832;2023-07-29T10:29:00;92920.19;;;29.24;44.03
12471;BME280;36499;46.484;13.832;2023-07-29T10:31:32;92923.22;;;29.23;46.63
12471;BME280;36499;46.484;13.832;2023-07-29T10:34:00;92917.84;;;29.56;47.38
12471;BME280;36499;46.484;13.832;2023-07-29T10:36:28;92915.78;;;29.52;41.69
12471;BME280;36499;46.484;13.832;2023-07-29T10:38:56;92913.81;;;29.62;41.59
12471;BME280;36499;46.484;13.832;2023-07-29T10:41:23;92915.50;;;29.66;42.92
12471;BME280;36499;46.484;13.832;2023-07-29T10:43:50;92918.53;;;29.77;41.32
12471;BME280;36499;46.484;13.832;2023-07-29T10:46:19;92916.19;;;29.99;43.42
12471;BME280;36499;46.484;13.832;2023-07-29T10:48:54;92913.63;;;30.15;43.88
12471;BME280;36499;46.484;13.832;2023-07-29T10:51:24;92917.53;;;29.81;46.75
12471;BME280;36499;46.484;13.832;2023-07-29T10:53:54;92915.31;;;30.20;43.16
12471;BME280;36499;46.484;13.832;2023-07-29T10:56:30;92915.72;;;30.22;44.07
12471;BME280;36499;46.484;13.832;2023-07-29T10:59:00;92913.34;;;30.32;43.92
12471;BME280;36499;46.484;13.832;2023-07-29T11:01:31;92910.53;;;30.41;44.23
12471;BME280;36499;46.484;13.832;2023-07-29T11:04:27;92907.19;;;30.56;43.35
12471;BME280;36499;46.484;13.832;2023-07-29T11:07:26;92895.84;;;30.63;43.98
12471;BME280;36499;46.484;13.832;2023-07-29T11:10:02;92892.31;;;30.74;43.45
12471;BME280;36499;46.484;13.832;2023-07-29T11:12:44;92886.81;;;30.71;44.32
12471;BME280;36499;46.484;13.832;2023-07-29T11:15:16;92888.59;;;30.39;43.13
12471;BME280;36499;46.484;13.832;2023-07-29T11:17:48;92881.44;;;30.31;42.39
12471;BME280;36499;46.484;13.832;2023-07-29T11:20:17;92885.00;;;30.35;43.98
12471;BME280;36499;46.484;13.832;2023-07-29T11:22:45;92888.03;;;30.33;44.43
12471;BME280;36499;46.484;13.832;2023-07-29T11:25:15;92881.31;;;30.39;42.82
12471;BME280;36499;46.484;13.832;2023-07-29T11:27:43;92879.38;;;30.52;43.98
12471;BME280;36499;46.484;13.832;2023-07-29T11:30:11;92881.97;;;30.48;45.51
12471;BME280;36499;46.484;13.832;2023-07-29T11:32:41;92877.13;;;30.54;44.08
12471;BME280;36499;46.484;13.832;2023-07-29T11:35:12;92881.94;;;30.61;44.38
12471;BME280;36499;46.484;13.832;2023-07-29T11:37:43;92880.53;;;30.79;45.99
12471;BME280;36499;46.484;13.832;2023-07-29T11:40:15;92877.75;;;30.63;45.08
12471;BME280;36499;46.484;13.832;2023-07-29T11:42:42;92877.38;;;30.49;45.03
12471;BME280;36499;46.484;13.832;2023-07-29T11:45:10;92880.31;;;30.32;45.63
12471;BME280;36499;46.484;13.832;2023-07-29T11:47:37;92869.75;;;30.39;45.71
12471;BME280;36499;46.484;13.832;2023-07-29T11:50:07;92872.25;;;30.32;45.27
12471;BME280;36499;46.484;13.832;2023-07-29T11:52:37;92864.28;;;30.48;45.75
12471;BME280;36499;46.484;13.832;2023-07-29T11:55:07;92865.28;;;30.43;45.91
12471;BME280;36499;46.484;13.832;2023-07-29T11:57:36;92872.44;;;30.51;48.07
12471;BME280;36499;46.484;13.832;2023-07-29T12:00:05;92865.28;;;30.43;47.79
12471;BME280;36499;46.484;13.832;2023-07-29T12:02:34;92866.16;;;30.75;47.69
12471;BME280;36499;46.484;13.832;2023-07-29T12:05:04;92861.06;;;30.70;44.74
12471;BME280;36499;46.484;13.832;2023-07-29T12:07:32;92865.06;;;30.76;45.63
12471;BME280;36499;46.484;13.832;2023-07-29T12:10:02;92863.94;;;30.77;45.15
12471;BME280;36499;46.484;13.832;2023-07-29T12:12:30;92862.34;;;30.76;45.33
12471;BME280;36499;46.484;13.832;2023-07-29T12:14:57;92852.91;;;30.82;44.30
12471;BME280;36499;46.484;13.832;2023-07-29T12:17:24;92853.06;;;30.73;45.40
12471;BME280;36499;46.484;13.832;2023-07-29T12:19:54;92849.13;;;30.71;44.55
12471;BME280;36499;46.484;13.832;2023-07-29T12:22:22;92852.47;;;30.80;44.77
12471;BME280;36499;46.484;13.832;2023-07-29T12:24:51;92852.28;;;30.73;43.94
12471;BME280;36499;46.484;13.832;2023-07-29T12:27:22;92850.72;;;30.72;46.83
12471;BME280;36499;46.484;13.832;2023-07-29T12:29:52;92839.88;;;30.56;45.85
12471;BME280;36499;46.484;13.832;2023-07-29T12:32:20;92839.00;;;30.80;48.07
12471;BME280;36499;46.484;13.832;2023-07-29T12:34:47;92840.03;;;31.03;47.09
12471;BME280;36499;46.484;13.832;2023-07-29T12:37:14;92847.38;;;31.18;45.94
12471;BME280;36499;46.484;13.832;2023-07-29T12:39:41;92831.63;;;31.36;47.08
12471;BME280;36499;46.484;13.832;2023-07-29T12:42:08;92843.66;;;31.38;46.42
12471;BME280;36499;46.484;13.832;2023-07-29T12:44:38;92842.06;;;31.22;45.70
12471;BME280;36499;46.484;13.832;2023-07-29T12:47:06;92831.13;;;31.30;46.73
12471;BME280;36499;46.484;13.832;2023-07-29T12:49:34;92826.06;;;31.29;46.04
12471;BME280;36499;46.484;13.832;2023-07-29T12:52:01;92822.84;;;31.08;46.15
12471;BME280;36499;46.484;13.832;2023-07-29T12:54:28;92818.06;;;31.17;46.43
12471;BME280;36499;46.484;13.832;2023-07-29T12:56:55;92819.19;;;31.31;46.08
12471;BME280;36499;46.484;13.832;2023-07-29T12:59:22;92813.72;;;31.43;47.41
12471;BME280;36499;46.484;13.832;2023-07-29T13:01:51;92817.47;;;31.39;46.32